Miami, Florida
Traffic Map
Current Weather Conditions
Miami, Florida
Scattered Clouds
Scattered Clouds
84°
Feels Like: 91°
Wind Chill: 84° Ceiling: Unl
Heat Index: 91° Visibility: 9mi
Dew Point: 74° Wind: 10mph
Humidity: 72% Direction: 110° (ESE)
Pressure: 30.06in Gusts: 0mph
Raw Report DataKMIA 020753Z 11009KT 9SM SCT025 SCT200 29/23 A3006 RMK AO2 SLP180 98643 T02890233
Traffic Incident Summary
Active as of:
Severity:
Category:
InformationThere was an issue retrieving the traffic information for this location. Please try a different location or try again shortly.
Advertisements
Track Severe Weather on mobile